Time;durP1;ratioP1;P1;durP2;ratioP2;P2;SDS_P1;SDS_P2;PMS_P1;PMS_P2;Temp;Humidity;BMP_temperature;BMP_pressure;BME280_temperature;BME280_humidity;BME280_pressure;Samples;Min_cycle;Max_cycle;Signal;HPM_P1;HPM_P2
2021/01/11 00:01:26;;;;;;;61.70;32.87;;;-1.60;99.90;;;;;;5067508;28;20227;-82
2021/01/11 00:03:52;;;;;;;57.77;31.03;;;-1.60;99.90;;;;;;5073662;28;20242;-83
2021/01/11 00:06:19;;;;;;;62.67;30.97;;;-1.70;99.90;;;;;;5073251;28;20623;-84
2021/01/11 00:08:46;;;;;;;65.43;33.93;;;-1.70;99.90;;;;;;5073320;28;20199;-84
2021/01/11 00:11:13;;;;;;;57.93;31.43;;;-1.70;99.90;;;;;;5072990;28;20234;-84
2021/01/11 00:13:42;;;;;;;56.90;29.80;;;-1.90;99.90;;;;;;5073182;28;20288;-83
2021/01/11 00:16:11;;;;;;;56.30;29.47;;;-2.00;99.90;;;;;;5073394;28;20250;-84
2021/01/11 00:18:39;;;;;;;62.73;31.73;;;-2.10;99.90;;;;;;5072889;28;20282;-84
2021/01/11 00:21:05;;;;;;;50.30;28.07;;;-2.20;99.90;;;;;;5053165;28;20378;-84
2021/01/11 00:23:32;;;;;;;42.90;24.97;;;-2.20;99.90;;;;;;5054215;28;20254;-84
2021/01/11 00:25:59;;;;;;;45.37;25.40;;;-2.30;99.90;;;;;;5072972;28;20227;-83
2021/01/11 00:28:25;;;;;;;42.93;24.03;;;-2.40;99.90;;;;;;5073457;28;20226;-84
2021/01/11 00:30:53;;;;;;;44.97;24.97;;;-2.50;99.90;;;;;;5073054;28;20219;-84
2021/01/11 00:33:19;;;;;;;43.90;23.90;;;-2.50;99.90;;;;;;5073161;28;20667;-84
2021/01/11 00:35:46;;;;;;;45.47;24.77;;;-2.50;99.90;;;;;;5060626;28;20227;-84
2021/01/11 00:38:12;;;;;;;43.43;24.90;;;-2.50;99.90;;;;;;5068361;28;20207;-84
2021/01/11 00:40:39;;;;;;;45.57;26.20;;;-2.50;99.90;;;;;;5063379;28;20195;-84
2021/01/11 00:43:05;;;;;;;47.27;25.73;;;-2.50;99.90;;;;;;5072576;28;20636;-83
2021/01/11 00:45:32;;;;;;;47.13;26.50;;;-2.50;99.90;;;;;;5072649;28;20210;-83
2021/01/11 00:47:59;;;;;;;51.03;26.13;;;-2.30;99.90;;;;;;5072361;28;20678;-83
2021/01/11 00:50:25;;;;;;;48.07;25.93;;;-2.30;99.90;;;;;;5072030;28;20237;-84
2021/01/11 00:52:52;;;;;;;51.47;27.23;;;-2.20;99.90;;;;;;5072192;28;20218;-84
2021/01/11 00:55:18;;;;;;;52.50;27.20;;;-2.00;99.90;;;;;;5057117;28;20741;-84
2021/01/11 00:57:45;;;;;;;53.33;27.27;;;-1.90;99.90;;;;;;5057302;28;20195;-84
2021/01/11 01:00:13;;;;;;;58.10;30.37;;;-1.80;99.90;;;;;;5071109;28;20252;-84
2021/01/11 01:02:39;;;;;;;61.17;30.73;;;-1.70;99.90;;;;;;5066548;28;20211;-84
2021/01/11 01:05:10;;;;;;;56.33;29.70;;;-1.60;99.90;;;;;;5072241;28;20260;-84
2021/01/11 01:07:37;;;;;;;58.97;29.83;;;-1.60;99.90;;;;;;5064955;28;20222;-84
2021/01/11 01:10:05;;;;;;;59.33;30.23;;;-1.60;99.90;;;;;;5055230;28;20615;-84
2021/01/11 01:12:32;;;;;;;60.07;30.83;;;-1.60;99.90;;;;;;5052521;28;20250;-84
2021/01/11 01:14:58;;;;;;;59.33;31.70;;;-1.60;99.90;;;;;;5052111;28;20667;-85
2021/01/11 01:17:25;;;;;;;57.60;31.17;;;-1.60;99.90;;;;;;5060675;28;20989;-84
2021/01/11 01:19:51;;;;;;;60.00;31.63;;;-1.60;99.90;;;;;;5071613;28;20250;-84
2021/01/11 01:22:19;;;;;;;60.40;31.63;;;-1.50;99.90;;;;;;5072374;28;20230;-84
2021/01/11 01:24:46;;;;;;;64.73;31.57;;;-1.50;99.90;;;;;;5072573;28;20557;-85
2021/01/11 01:27:12;;;;;;;56.60;30.03;;;-1.60;99.90;;;;;;5072675;28;20210;-85
2021/01/11 01:29:39;;;;;;;58.70;30.23;;;-1.70;99.90;;;;;;5072764;28;20199;-84
2021/01/11 01:32:06;;;;;;;56.20;29.23;;;-1.80;99.90;;;;;;5072188;28;20187;-84
2021/01/11 01:34:32;;;;;;;57.07;30.50;;;-1.90;99.90;;;;;;5072625;28;20312;-84
2021/01/11 01:36:59;;;;;;;58.53;29.80;;;-1.90;99.90;;;;;;5072326;28;20203;-84
2021/01/11 01:39:26;;;;;;;59.63;30.53;;;-2.00;99.90;;;;;;5072651;28;20230;-84
2021/01/11 01:41:53;;;;;;;63.93;32.30;;;-2.00;99.90;;;;;;5072492;28;20207;-84
2021/01/11 01:44:19;;;;;;;60.60;32.50;;;-2.00;99.90;;;;;;5071987;28;20256;-85
2021/01/11 01:46:46;;;;;;;59.80;31.17;;;-2.10;99.90;;;;;;5072483;28;20214;-84
2021/01/11 01:49:12;;;;;;;61.13;31.93;;;-2.10;99.90;;;;;;5072076;28;20215;-84
2021/01/11 01:51:41;;;;;;;58.93;31.00;;;-2.10;99.90;;;;;;5072233;28;20202;-84
2021/01/11 01:54:08;;;;;;;60.93;32.97;;;-2.10;99.90;;;;;;5071086;28;20226;-83
2021/01/11 01:56:35;;;;;;;59.57;30.97;;;-2.00;99.90;;;;;;5072002;28;20211;-83
2021/01/11 01:59:04;;;;;;;57.63;30.23;;;-1.80;99.90;;;;;;5071844;28;20562;-83
2021/01/11 02:01:30;;;;;;;60.30;32.10;;;-1.70;99.90;;;;;;5060889;28;20235;-83
2021/01/11 02:03:57;;;;;;;62.17;32.10;;;-1.60;99.90;;;;;;5053206;28;20266;-83
2021/01/11 02:06:29;;;;;;;62.93;32.50;;;-1.60;99.90;;;;;;5051875;28;20230;-83
2021/01/11 02:09:02;;;;;;;57.73;31.20;;;-1.70;99.90;;;;;;5052765;28;20679;-83
2021/01/11 02:11:33;;;;;;;61.40;32.33;;;-1.60;99.90;;;;;;5055807;28;20197;-83
2021/01/11 02:14:28;;;;;;;58.10;30.23;;;-1.60;99.90;;;;;;5055546;28;20200;-84
2021/01/11 02:17:01;;;;;;;59.37;30.77;;;-1.60;99.90;;;;;;5069210;28;20203;-84
2021/01/11 02:20:03;;;;;;;60.70;30.23;;;-1.70;99.90;;;;;;5072793;28;20230;-83
2021/01/11 02:22:36;;;;;;;56.83;30.90;;;-1.60;99.90;;;;;;5035537;28;20255;-83
2021/01/11 02:25:39;;;;;;;54.60;29.43;;;-1.60;99.90;;;;;;5035682;28;20240;-83
2021/01/11 02:28:16;;;;;;;55.23;29.23;;;-1.70;99.90;;;;;;5030438;28;20251;-83
2021/01/11 02:30:48;;;;;;;58.00;29.37;;;-1.80;99.90;;;;;;5068209;28;20214;-84
2021/01/11 02:33:17;;;;;;;51.10;28.50;;;-1.80;99.90;;;;;;5075037;28;20195;-83
2021/01/11 02:36:00;;;;;;;57.10;29.07;;;-1.80;99.90;;;;;;5068229;28;20686;-84
2021/01/11 02:38:28;;;;;;;54.87;30.90;;;-1.70;99.90;;;;;;5057900;28;20230;-83
2021/01/11 02:40:54;;;;;;;54.43;29.23;;;-1.70;99.90;;;;;;5075425;28;20211;-83
2021/01/11 02:43:21;;;;;;;58.23;29.97;;;-1.60;99.90;;;;;;5073910;28;20226;-83
2021/01/11 02:45:48;;;;;;;53.67;30.23;;;-1.60;99.90;;;;;;5070738;28;20283;-83
2021/01/11 02:48:21;;;;;;;55.63;30.03;;;-1.70;99.90;;;;;;5075041;28;20204;-83
2021/01/11 02:51:04;;;;;;;51.97;28.67;;;-1.60;99.90;;;;;;5074947;28;20202;-84
2021/01/11 02:53:39;;;;;;;55.13;29.70;;;-1.60;99.90;;;;;;5074517;28;20250;-84
2021/01/11 02:56:09;;;;;;;57.73;30.67;;;-1.60;99.90;;;;;;5075251;28;20203;-83
2021/01/11 02:58:58;;;;;;;52.67;29.50;;;-1.60;99.90;;;;;;5074280;28;20199;-83
2021/01/11 03:01:31;;;;;;;52.30;28.53;;;-1.60;99.90;;;;;;5061394;28;20215;-84
2021/01/11 03:03:59;;;;;;;53.87;29.17;;;-1.60;99.90;;;;;;5074743;28;20273;-83
2021/01/11 03:06:30;;;;;;;56.30;29.93;;;-1.60;99.90;;;;;;5059992;28;20671;-84
2021/01/11 03:09:05;;;;;;;57.93;30.00;;;-1.60;99.90;;;;;;5054717;28;20188;-82
2021/01/11 03:11:35;;;;;;;54.07;29.17;;;-1.60;99.90;;;;;;5040684;28;20225;-82
2021/01/11 03:14:01;;;;;;;54.97;30.67;;;-1.50;99.90;;;;;;5054572;28;20283;-83
2021/01/11 03:16:29;;;;;;;52.30;30.07;;;-1.50;99.90;;;;;;5060251;28;20624;-84
2021/01/11 03:18:55;;;;;;;56.50;29.73;;;-1.40;99.90;;;;;;5073571;28;20853;-83
2021/01/11 03:21:22;;;;;;;52.47;28.77;;;-1.40;99.90;;;;;;5073800;28;20191;-83
2021/01/11 03:23:48;;;;;;;51.70;29.53;;;-1.30;99.90;;;;;;5074254;28;20220;-83
2021/01/11 03:26:22;;;;;;;54.80;29.33;;;-1.30;99.90;;;;;;5073978;28;20187;-83
2021/01/11 03:28:49;;;;;;;56.37;28.67;;;-1.20;99.90;;;;;;5065827;28;20617;-83
2021/01/11 03:31:15;;;;;;;53.30;29.30;;;-1.20;99.90;;;;;;5054503;28;20321;-83
2021/01/11 03:33:43;;;;;;;51.77;28.03;;;-1.10;99.90;;;;;;5068475;28;20195;-82
2021/01/11 03:36:10;;;;;;;56.07;29.80;;;-1.10;99.90;;;;;;5073856;28;20213;-83
2021/01/11 03:38:38;;;;;;;52.90;29.43;;;-1.00;99.90;;;;;;5033943;28;20197;-82
2021/01/11 03:41:05;;;;;;;53.50;28.93;;;-1.00;99.90;;;;;;5033896;28;20197;-83
2021/01/11 03:43:32;;;;;;;53.07;28.80;;;-1.00;99.90;;;;;;5033463;28;20226;-83
2021/01/11 03:45:58;;;;;;;53.67;30.03;;;-1.00;99.90;;;;;;5034168;28;20544;-83
2021/01/11 03:48:25;;;;;;;54.37;28.93;;;-0.90;99.90;;;;;;5034194;28;20715;-83
2021/01/11 03:50:52;;;;;;;50.07;27.90;;;-0.90;99.90;;;;;;5058450;28;20209;-83
2021/01/11 03:53:19;;;;;;;54.73;28.60;;;-0.90;99.90;;;;;;5072950;28;20662;-82
2021/01/11 03:55:45;;;;;;;52.80;28.73;;;-0.90;99.90;;;;;;5064235;28;20200;-85
2021/01/11 03:58:12;;;;;;;54.67;29.00;;;-0.90;99.90;;;;;;5071089;28;20234;-82
2021/01/11 04:00:38;;;;;;;48.70;27.13;;;-0.80;99.90;;;;;;5055536;28;20200;-84
2021/01/11 04:03:05;;;;;;;53.27;28.73;;;-0.70;99.90;;;;;;5055229;28;20226;-82
2021/01/11 04:05:33;;;;;;;52.87;28.67;;;-0.70;99.90;;;;;;5066105;28;20236;-83
2021/01/11 04:08:00;;;;;;;59.10;30.07;;;-0.60;99.90;;;;;;5053358;28;20199;-83
2021/01/11 04:10:27;;;;;;;50.63;28.37;;;-0.60;99.90;;;;;;5053564;28;20198;-83
2021/01/11 04:12:53;;;;;;;54.13;29.67;;;-0.60;99.90;;;;;;5053483;28;20204;-84
2021/01/11 04:15:20;;;;;;;53.67;29.03;;;-0.50;99.90;;;;;;5053733;28;20229;-83
2021/01/11 04:17:49;;;;;;;52.97;28.93;;;-0.50;99.90;;;;;;5036095;28;20332;-82
2021/01/11 04:20:16;;;;;;;50.77;28.33;;;-0.50;99.90;;;;;;5053275;28;20269;-83
2021/01/11 04:22:44;;;;;;;53.13;28.00;;;-0.50;99.90;;;;;;5035301;28;20682;-85
2021/01/11 04:25:12;;;;;;;55.67;29.97;;;-0.50;99.90;;;;;;5059005;28;20676;-85
2021/01/11 04:27:38;;;;;;;53.43;29.40;;;-0.50;99.90;;;;;;5052870;28;20693;-85
2021/01/11 04:30:07;;;;;;;51.83;28.77;;;-0.50;99.90;;;;;;5057856;28;20193;-85
2021/01/11 04:32:35;;;;;;;51.00;28.87;;;-0.40;99.90;;;;;;5053051;28;20213;-82
2021/01/11 04:35:01;;;;;;;52.53;29.27;;;-0.30;99.90;;;;;;5061692;28;20888;-83
2021/01/11 04:37:28;;;;;;;50.93;27.47;;;-0.20;99.90;;;;;;5071993;28;20561;-83
2021/01/11 04:39:54;;;;;;;47.47;27.23;;;-0.10;99.90;;;;;;5073328;28;20220;-83
2021/01/11 04:42:28;;;;;;;50.07;27.33;;;0.00;99.90;;;;;;5051106;28;20233;-85
2021/01/11 04:44:56;;;;;;;47.30;27.13;;;0.10;99.90;;;;;;5072931;28;20691;-85
2021/01/11 04:47:24;;;;;;;48.90;27.37;;;0.10;99.90;;;;;;5073237;28;20226;-85
2021/01/11 04:49:52;;;;;;;54.20;29.50;;;0.10;99.90;;;;;;5072988;28;20684;-85
2021/01/11 04:52:19;;;;;;;50.57;27.53;;;0.10;99.90;;;;;;5073167;28;20640;-85
2021/01/11 04:54:49;;;;;;;49.63;26.17;;;0.20;99.90;;;;;;5072870;28;20681;-85
2021/01/11 04:57:16;;;;;;;49.20;27.03;;;0.10;99.90;;;;;;5058366;28;20287;-85
2021/01/11 04:59:49;;;;;;;52.33;27.80;;;0.20;99.90;;;;;;5035333;28;20841;-85
2021/01/11 05:02:21;;;;;;;50.63;26.57;;;0.20;99.90;;;;;;5052911;28;20606;-84
2021/01/11 05:04:48;;;;;;;45.93;26.73;;;0.20;99.90;;;;;;5053045;28;20290;-85
2021/01/11 05:07:17;;;;;;;49.47;27.10;;;0.20;99.90;;;;;;5055100;28;20218;-82
2021/01/11 05:09:46;;;;;;;47.47;26.97;;;0.20;99.90;;;;;;5072784;28;20210;-83
2021/01/11 05:12:14;;;;;;;50.20;28.30;;;0.30;99.90;;;;;;5072660;28;20200;-83
2021/01/11 05:14:41;;;;;;;47.43;27.67;;;0.30;99.90;;;;;;5072736;28;20201;-83
2021/01/11 05:17:10;;;;;;;51.67;27.73;;;0.30;99.90;;;;;;5072310;28;20307;-83
2021/01/11 05:19:37;;;;;;;51.20;29.17;;;0.40;99.90;;;;;;5072217;28;20321;-83
2021/01/11 05:22:09;;;;;;;52.17;28.90;;;0.40;99.90;;;;;;5072313;28;20201;-82
2021/01/11 05:24:36;;;;;;;52.43;29.23;;;0.30;99.90;;;;;;5072374;28;20645;-83
2021/01/11 05:27:05;;;;;;;48.33;27.67;;;0.30;99.90;;;;;;5072311;28;20206;-84
2021/01/11 05:29:32;;;;;;;49.30;27.47;;;0.30;99.90;;;;;;5072500;28;20201;-83
2021/01/11 05:32:00;;;;;;;48.17;27.73;;;0.40;99.90;;;;;;5072612;28;20241;-83
2021/01/11 05:34:45;;;;;;;46.67;27.37;;;0.40;99.90;;;;;;5066704;28;20205;-83
2021/01/11 05:37:29;;;;;;;47.10;26.53;;;0.40;99.90;;;;;;5072351;28;20237;-82
2021/01/11 05:40:06;;;;;;;50.27;27.07;;;0.50;99.90;;;;;;5072024;28;20187;-83
2021/01/11 05:42:32;;;;;;;49.67;28.77;;;0.50;99.90;;;;;;5055029;28;20198;-83
2021/01/11 05:45:13;;;;;;;49.53;27.87;;;0.60;99.90;;;;;;5055117;28;20194;-84
2021/01/11 05:47:57;;;;;;;51.60;29.77;;;0.60;99.90;;;;;;5072184;28;20236;-84
2021/01/11 05:50:40;;;;;;;51.33;29.90;;;0.60;99.90;;;;;;5075917;28;20205;-83
2021/01/11 05:53:18;;;;;;;51.27;29.10;;;0.60;99.90;;;;;;5074978;28;20216;-84
2021/01/11 05:55:45;;;;;;;48.90;27.67;;;0.60;99.90;;;;;;5075067;28;20612;-82
2021/01/11 05:58:12;;;;;;;48.27;27.90;;;0.60;99.90;;;;;;5062963;28;20199;-79
2021/01/11 06:00:40;;;;;;;52.17;30.30;;;0.40;99.90;;;;;;5072685;28;20246;-78
2021/01/11 06:03:08;;;;;;;49.50;27.30;;;0.40;99.90;;;;;;5064540;28;20254;-79
2021/01/11 06:05:35;;;;;;;50.97;28.77;;;0.30;99.90;;;;;;5067695;28;20250;-81
2021/01/11 06:08:05;;;;;;;51.50;28.10;;;0.30;99.90;;;;;;5068797;28;20245;-79
2021/01/11 06:10:32;;;;;;;51.30;28.50;;;0.30;99.90;;;;;;5074438;28;20194;-79
2021/01/11 06:12:58;;;;;;;51.60;28.83;;;0.30;99.90;;;;;;5075438;28;20225;-81
2021/01/11 06:15:26;;;;;;;51.77;28.33;;;0.40;99.90;;;;;;5074997;28;20684;-77
2021/01/11 06:17:55;;;;;;;49.93;28.73;;;0.40;99.90;;;;;;5074341;28;20340;-81
2021/01/11 06:20:23;;;;;;;73.70;41.07;;;0.40;99.90;;;;;;5061270;28;20635;-82
2021/01/11 06:23:04;;;;;;;64.20;35.47;;;0.50;99.90;;;;;;5055263;28;20317;-81
2021/01/11 06:25:44;;;;;;;57.83;32.33;;;0.70;99.90;;;;;;5073276;28;20202;-80
2021/01/11 06:28:12;;;;;;;55.80;31.63;;;0.70;99.90;;;;;;5075113;28;20208;-79
2021/01/11 06:30:44;;;;;;;58.97;34.83;;;0.70;99.90;;;;;;5074936;28;20231;-78
2021/01/11 06:33:26;;;;;;;57.27;32.67;;;0.80;99.90;;;;;;5073766;28;20229;-78
2021/01/11 06:35:55;;;;;;;55.43;32.07;;;0.80;99.90;;;;;;5060862;28;20234;-79
2021/01/11 06:38:30;;;;;;;52.40;30.43;;;0.80;99.90;;;;;;5059299;28;20217;-77
2021/01/11 06:41:12;;;;;;;53.73;31.47;;;0.80;99.90;;;;;;5061032;28;20233;-80
2021/01/11 06:43:45;;;;;;;52.33;30.03;;;0.80;99.90;;;;;;5048536;28;20221;-77
2021/01/11 06:46:13;;;;;;;52.60;31.70;;;0.80;99.90;;;;;;5058749;28;20222;-76
2021/01/11 06:48:41;;;;;;;54.97;31.50;;;0.80;99.90;;;;;;5064915;28;20284;-77
2021/01/11 06:51:11;;;;;;;52.23;32.00;;;0.80;99.90;;;;;;5074895;28;20201;-77
2021/01/11 06:53:38;;;;;;;49.70;31.17;;;0.80;99.90;;;;;;5074397;28;20233;-77
2021/01/11 06:56:06;;;;;;;53.03;32.03;;;0.90;99.90;;;;;;5073988;28;20248;-77
2021/01/11 06:58:34;;;;;;;56.10;32.93;;;0.90;99.90;;;;;;5068704;28;20248;-78
2021/01/11 07:01:05;;;;;;;51.93;30.83;;;0.90;99.90;;;;;;5054912;28;20204;-78
2021/01/11 07:03:45;;;;;;;56.53;33.20;;;0.90;99.90;;;;;;5065944;28;20713;-78
2021/01/11 07:06:35;;;;;;;52.93;31.70;;;1.00;99.90;;;;;;5060975;28;20287;-78
2021/01/11 07:09:10;;;;;;;51.80;30.87;;;1.00;99.90;;;;;;5054900;28;20205;-78
2021/01/11 07:11:38;;;;;;;50.83;29.23;;;1.00;99.90;;;;;;5034849;28;20252;-78
2021/01/11 07:14:05;;;;;;;48.77;29.70;;;1.00;99.90;;;;;;5034237;28;20239;-78
2021/01/11 07:16:40;;;;;;;52.63;31.37;;;1.10;99.90;;;;;;5052092;28;20303;-78
2021/01/11 07:19:09;;;;;;;52.10;29.50;;;1.00;99.90;;;;;;5062462;28;20760;-78
2021/01/11 07:21:36;;;;;;;48.20;28.47;;;1.00;99.90;;;;;;5068037;28;20684;-79
2021/01/11 07:24:04;;;;;;;51.87;30.13;;;1.00;99.90;;;;;;5074087;28;20227;-77
2021/01/11 07:26:33;;;;;;;57.83;32.20;;;1.00;99.90;;;;;;5074023;28;20237;-77
2021/01/11 07:29:02;;;;;;;49.37;30.17;;;1.10;99.90;;;;;;5074061;28;20221;-78
2021/01/11 07:31:30;;;;;;;48.13;29.60;;;1.10;99.90;;;;;;5068378;28;20264;-77
2021/01/11 07:34:06;;;;;;;48.43;28.90;;;1.20;99.90;;;;;;5064881;28;20218;-77
2021/01/11 07:36:43;;;;;;;46.43;28.07;;;1.20;99.90;;;;;;5071257;28;20198;-78
2021/01/11 07:39:20;;;;;;;43.97;25.80;;;1.20;99.90;;;;;;5071289;28;20230;-78
2021/01/11 07:41:49;;;;;;;43.30;26.13;;;1.30;99.90;;;;;;5073559;28;20237;-78
2021/01/11 07:44:19;;;;;;;40.20;25.07;;;1.30;99.90;;;;;;5073586;28;20691;-78
2021/01/11 07:46:52;;;;;;;42.03;24.43;;;1.30;99.90;;;;;;5062052;28;20203;-78
2021/01/11 07:49:19;;;;;;;41.63;23.83;;;1.40;99.90;;;;;;5072513;28;20223;-77
2021/01/11 07:51:47;;;;;;;37.73;23.00;;;1.40;99.90;;;;;;5048267;28;20683;-77
2021/01/11 07:54:16;;;;;;;39.77;23.67;;;1.40;99.90;;;;;;5053387;28;20227;-77
2021/01/11 07:56:44;;;;;;;34.33;21.63;;;1.40;99.90;;;;;;5053890;28;20627;-77
2021/01/11 07:59:11;;;;;;;38.87;22.77;;;1.40;99.90;;;;;;5033524;28;20240;-78
2021/01/11 08:01:40;;;;;;;42.63;25.37;;;1.50;99.90;;;;;;5039940;28;20256;-77
2021/01/11 08:04:06;;;;;;;44.33;25.90;;;1.50;99.90;;;;;;5065540;28;20729;-77
2021/01/11 08:06:45;;;;;;;39.50;24.97;;;1.50;99.90;;;;;;5052701;28;20243;-77
2021/01/11 08:09:13;;;;;;;41.57;25.20;;;1.60;99.90;;;;;;5070051;28;20237;-77
2021/01/11 08:11:40;;;;;;;40.57;25.27;;;1.60;99.90;;;;;;5073604;28;20686;-77
2021/01/11 08:14:07;;;;;;;40.90;26.33;;;1.60;99.90;;;;;;5072909;28;20199;-77
2021/01/11 08:16:35;;;;;;;39.87;25.03;;;1.60;99.90;;;;;;5064097;28;20239;-77
2021/01/11 08:19:06;;;;;;;39.73;24.20;;;1.60;99.90;;;;;;5052210;28;20274;-77
2021/01/11 08:21:32;;;;;;;37.93;23.30;;;1.60;99.90;;;;;;5057430;28;20616;-77
2021/01/11 08:24:05;;;;;;;38.70;22.97;;;1.60;99.90;;;;;;5072456;28;20778;-77
2021/01/11 08:26:33;;;;;;;39.57;23.10;;;1.70;99.90;;;;;;5066060;28;20231;-77
2021/01/11 08:29:00;;;;;;;37.93;23.10;;;1.70;99.90;;;;;;5071917;28;20217;-77
2021/01/11 08:31:29;;;;;;;35.67;22.20;;;1.70;99.90;;;;;;5071930;28;20241;-77
2021/01/11 08:33:57;;;;;;;34.83;22.00;;;1.80;99.90;;;;;;5072194;28;20226;-77
2021/01/11 08:36:24;;;;;;;36.47;23.43;;;1.80;99.90;;;;;;5071469;28;20206;-77
2021/01/11 08:39:18;;;;;;;38.43;23.27;;;1.80;99.90;;;;;;5072132;28;20241;-78
2021/01/11 08:41:48;;;;;;;45.83;25.60;;;1.80;99.90;;;;;;5072265;28;20203;-77
2021/01/11 08:44:29;;;;;;;42.80;24.20;;;1.80;99.90;;;;;;5072510;28;20223;-77
2021/01/11 08:47:01;;;;;;;39.97;22.80;;;1.80;99.90;;;;;;5073133;28;20238;-77
2021/01/11 08:49:28;;;;;;;38.93;23.60;;;1.90;99.90;;;;;;5071928;28;20736;-77
2021/01/11 08:52:09;;;;;;;36.93;22.83;;;1.90;99.90;;;;;;5072747;28;20227;-77
2021/01/11 08:54:37;;;;;;;35.30;23.20;;;1.90;99.90;;;;;;5072354;28;20638;-77
2021/01/11 08:57:14;;;;;;;35.90;22.47;;;1.90;99.90;;;;;;5072448;28;20736;-77
2021/01/11 08:59:49;;;;;;;32.93;21.37;;;2.00;99.90;;;;;;5032528;28;20236;-77
2021/01/11 09:02:30;;;;;;;36.70;21.83;;;2.00;99.90;;;;;;5070160;28;20553;-77
2021/01/11 09:05:12;;;;;;;34.17;22.37;;;2.00;99.90;;;;;;5064511;28;20307;-77
2021/01/11 09:07:38;;;;;;;34.67;21.87;;;2.00;99.90;;;;;;5067618;28;20706;-77
2021/01/11 09:10:21;;;;;;;34.80;22.60;;;2.00;99.90;;;;;;5052105;28;20239;-77
2021/01/11 09:12:49;;;;;;;35.07;22.57;;;2.10;99.90;;;;;;5071819;28;20202;-77
2021/01/11 09:15:23;;;;;;;36.03;22.40;;;2.10;99.90;;;;;;5071929;28;20607;-77
2021/01/11 09:18:01;;;;;;;33.00;20.47;;;2.10;99.90;;;;;;5057870;28;20218;-77
2021/01/11 09:20:28;;;;;;;31.17;20.30;;;2.20;99.90;;;;;;5068910;28;20240;-77
2021/01/11 09:22:56;;;;;;;31.70;20.77;;;2.20;99.90;;;;;;5067647;28;20219;-77
2021/01/11 09:25:23;;;;;;;32.87;21.47;;;2.30;99.90;;;;;;5052265;28;20289;-77
2021/01/11 09:27:50;;;;;;;32.43;21.60;;;2.30;99.90;;;;;;5061975;28;20195;-78
2021/01/11 09:30:17;;;;;;;35.27;22.63;;;2.30;99.90;;;;;;5045241;28;20211;-78
2021/01/11 09:32:45;;;;;;;32.77;20.43;;;2.40;99.90;;;;;;5056136;28;20256;-77
2021/01/11 09:35:13;;;;;;;29.87;20.03;;;2.40;99.90;;;;;;5071882;28;20628;-77
2021/01/11 09:37:41;;;;;;;32.33;20.63;;;2.40;99.90;;;;;;5056309;28;20232;-77
2021/01/11 09:40:08;;;;;;;31.80;20.87;;;2.50;99.90;;;;;;5064050;28;20231;-77
2021/01/11 09:42:35;;;;;;;27.87;18.93;;;2.50;99.90;;;;;;5070894;28;20288;-78
2021/01/11 09:45:02;;;;;;;29.97;19.17;;;2.60;99.90;;;;;;5072271;28;20229;-78
2021/01/11 09:47:28;;;;;;;29.03;19.27;;;2.60;99.90;;;;;;5070418;28;20206;-78
2021/01/11 09:49:55;;;;;;;28.50;19.10;;;2.60;99.90;;;;;;5070543;28;20706;-77
2021/01/11 09:52:22;;;;;;;32.70;20.37;;;2.70;99.90;;;;;;5071656;28;20234;-77
2021/01/11 09:54:50;;;;;;;34.20;21.30;;;2.70;99.90;;;;;;5054433;28;20203;-78
2021/01/11 09:57:16;;;;;;;31.47;20.53;;;2.70;99.90;;;;;;5062128;28;20227;-78
2021/01/11 09:59:42;;;;;;;30.50;20.37;;;2.70;99.90;;;;;;5057823;28;20239;-78
2021/01/11 10:02:10;;;;;;;31.67;20.23;;;2.70;99.90;;;;;;5037403;28;20251;-78
2021/01/11 10:04:36;;;;;;;32.37;21.00;;;2.80;99.90;;;;;;5031535;28;20312;-77
2021/01/11 10:07:03;;;;;;;33.93;20.97;;;2.90;99.90;;;;;;5056799;28;20286;-77
2021/01/11 10:09:30;;;;;;;30.10;20.40;;;2.90;99.90;;;;;;5070721;28;20234;-77
2021/01/11 10:11:59;;;;;;;33.80;21.57;;;3.00;99.90;;;;;;5071756;28;20235;-77
2021/01/11 10:14:27;;;;;;;31.87;21.43;;;3.00;99.90;;;;;;5066818;28;20227;-78
2021/01/11 10:16:54;;;;;;;32.17;21.23;;;3.00;99.90;;;;;;5031614;28;20240;-78
2021/01/11 10:19:21;;;;;;;33.33;23.43;;;3.00;99.90;;;;;;5041063;28;20258;-78
2021/01/11 10:21:49;;;;;;;37.00;24.73;;;3.10;99.90;;;;;;5071515;28;20691;-78
2021/01/11 10:24:16;;;;;;;32.87;22.33;;;3.10;99.90;;;;;;5067967;28;20746;-78
2021/01/11 10:26:44;;;;;;;32.57;22.83;;;3.10;99.90;;;;;;5071795;28;20239;-78
2021/01/11 10:29:12;;;;;;;30.97;21.57;;;3.20;99.90;;;;;;5054253;28;20239;-78
2021/01/11 10:31:40;;;;;;;28.50;20.20;;;3.20;99.90;;;;;;5037361;28;20236;-78
2021/01/11 10:34:07;;;;;;;28.60;18.10;;;3.30;99.90;;;;;;5075023;28;20236;-78
2021/01/11 10:36:38;;;;;;;28.73;18.63;;;3.30;99.90;;;;;;5075347;28;20238;-78
2021/01/11 10:39:05;;;;;;;27.27;17.97;;;3.40;99.90;;;;;;5074806;28;20235;-78
2021/01/11 10:41:31;;;;;;;26.73;18.57;;;3.40;99.90;;;;;;5074520;28;20232;-78
2021/01/11 10:43:58;;;;;;;27.67;18.97;;;3.50;99.90;;;;;;5074085;28;20262;-78
2021/01/11 10:46:25;;;;;;;28.93;19.70;;;3.50;99.90;;;;;;5074939;28;20243;-78
2021/01/11 10:48:52;;;;;;;31.27;20.33;;;3.50;99.90;;;;;;5074884;28;20297;-78
2021/01/11 10:51:18;;;;;;;31.87;20.70;;;3.60;99.90;;;;;;5074716;28;20693;-79
2021/01/11 10:53:45;;;;;;;29.53;20.40;;;3.70;99.90;;;;;;5073897;28;20229;-78
2021/01/11 10:56:12;;;;;;;30.37;20.40;;;3.80;99.90;;;;;;5073723;28;20274;-78
2021/01/11 10:58:39;;;;;;;30.67;19.77;;;3.90;99.90;;;;;;5068055;28;20241;-78
2021/01/11 11:01:07;;;;;;;29.17;19.07;;;4.00;99.90;;;;;;5056664;28;20693;-79
2021/01/11 11:03:35;;;;;;;28.27;18.70;;;4.20;99.90;;;;;;5033786;28;20262;-79
2021/01/11 11:06:01;;;;;;;27.90;18.17;;;4.30;99.90;;;;;;5053081;28;20215;-78
2021/01/11 11:08:28;;;;;;;29.03;18.83;;;4.40;99.90;;;;;;5034166;28;20207;-78
2021/01/11 11:10:54;;;;;;;32.27;20.80;;;4.50;99.90;;;;;;5049927;28;20245;-78
2021/01/11 11:13:21;;;;;;;33.20;21.57;;;4.60;99.90;;;;;;5053713;28;20245;-78
2021/01/11 11:15:48;;;;;;;34.97;23.40;;;4.60;99.90;;;;;;5059500;28;20286;-78
2021/01/11 11:18:24;;;;;;;34.73;22.83;;;4.70;99.90;;;;;;5053887;28;20259;-78
2021/01/11 11:20:51;;;;;;;35.20;22.17;;;5.00;99.90;;;;;;5053390;28;20239;-78
2021/01/11 11:23:23;;;;;;;31.93;22.10;;;5.30;99.90;;;;;;5037626;28;20293;-78
2021/01/11 11:25:53;;;;;;;27.60;19.83;;;5.60;99.90;;;;;;5053767;28;20219;-78
2021/01/11 11:28:20;;;;;;;33.60;22.80;;;5.60;99.90;;;;;;5053910;28;20235;-78
2021/01/11 11:30:46;;;;;;;34.57;23.53;;;5.90;99.90;;;;;;5053779;28;20239;-78
2021/01/11 11:33:12;;;;;;;30.77;21.63;;;6.20;99.90;;;;;;5053709;28;20263;-79
2021/01/11 11:35:41;;;;;;;27.63;20.13;;;6.70;99.90;;;;;;5053704;28;20285;-80
2021/01/11 11:38:09;;;;;;;29.00;21.37;;;7.10;99.90;;;;;;5053581;28;20241;-77
2021/01/11 11:40:35;;;;;;;28.17;19.40;;;7.30;99.90;;;;;;5054021;28;20256;-78
2021/01/11 11:43:02;;;;;;;26.57;19.97;;;7.10;99.90;;;;;;5069384;28;20241;-77
2021/01/11 11:45:28;;;;;;;27.73;19.60;;;6.90;99.90;;;;;;5073812;28;20234;-78
2021/01/11 11:47:55;;;;;;;26.27;19.83;;;6.80;99.90;;;;;;5073481;28;20285;-78
2021/01/11 11:50:21;;;;;;;28.17;20.53;;;6.80;99.90;;;;;;5073423;28;20238;-78
2021/01/11 11:52:47;;;;;;;27.00;19.93;;;6.80;99.90;;;;;;5071788;28;20227;-78
2021/01/11 11:55:15;;;;;;;31.40;21.03;;;6.80;99.90;;;;;;5072438;28;20211;-80
2021/01/11 11:57:43;;;;;;;28.93;21.43;;;6.70;99.90;;;;;;5053687;28;20228;-78
2021/01/11 12:00:11;;;;;;;28.40;21.93;;;6.80;99.90;;;;;;5053368;28;20238;-78
2021/01/11 12:02:40;;;;;;;26.33;19.93;;;7.00;99.90;;;;;;5060948;28;20307;-78
2021/01/11 12:05:09;;;;;;;28.50;20.33;;;7.10;99.90;;;;;;5069090;28;20353;-79
2021/01/11 12:07:35;;;;;;;29.80;20.57;;;7.10;99.90;;;;;;5046086;28;20255;-79
2021/01/11 12:10:01;;;;;;;28.53;20.03;;;7.20;99.90;;;;;;5073122;28;20263;-79
2021/01/11 12:12:29;;;;;;;26.40;19.97;;;7.50;99.90;;;;;;5073178;28;20293;-78
2021/01/11 12:14:55;;;;;;;26.37;20.93;;;7.70;99.90;;;;;;5073265;28;20233;-78
2021/01/11 12:17:21;;;;;;;27.50;20.33;;;7.60;99.90;;;;;;5073005;28;20235;-78
2021/01/11 12:19:48;;;;;;;26.30;20.67;;;7.50;99.90;;;;;;5072353;28;20291;-79
2021/01/11 12:22:14;;;;;;;25.57;19.77;;;7.40;99.90;;;;;;5073033;28;20252;-78
2021/01/11 12:24:41;;;;;;;27.73;20.67;;;7.40;99.90;;;;;;5073171;28;20271;-78
2021/01/11 12:27:08;;;;;;;24.60;19.37;;;7.60;99.90;;;;;;5066877;28;20224;-77
2021/01/11 12:29:35;;;;;;;21.60;17.70;;;7.90;99.90;;;;;;5053116;28;20291;-78
2021/01/11 12:32:06;;;;;;;23.97;18.27;;;8.10;99.90;;;;;;5067990;28;20214;-78
2021/01/11 12:34:34;;;;;;;27.70;18.83;;;8.10;99.90;;;;;;5041841;28;20226;-78
2021/01/11 12:37:01;;;;;;;22.10;18.40;;;8.20;99.90;;;;;;5052793;28;20202;-78
2021/01/11 12:39:28;;;;;;;24.80;18.13;;;8.00;99.90;;;;;;5055752;28;20605;-79
2021/01/11 12:41:55;;;;;;;25.50;19.00;;;8.10;99.90;;;;;;5063488;28;20307;-78
2021/01/11 12:44:24;;;;;;;22.67;17.33;;;8.00;99.90;;;;;;5065081;28;20258;-77